Columbus, NM (88029)

7:14 PM MST on December 10, 2016 (GMT -0700)
Columbus, NM | | Change Station

Elev 4055 ft 31.83 °N, 107.64 °W | Updated 7 minutes ago

Clear
Clear
46.4 °F
Feels Like 46 °F
N
2.2
Wind Variable Wind from West

Today
High -- | Low -- °F
--% Chance of Precip.
Yesterday
High -- | Low -- °F
Precip. -- in
Pressure 30.08 in
Visibility 10.0 miles
Clouds Clear
Windchill 46 °F
Dew Point 39 °F
Humidity 74%
Rainfall 0.00 in
Snow Depth Not available.
7:00 AM 5:07 PM
Waxing Gibbous, 88% visible
METAR KDMN 110153Z AUTO 23006KT 10SM CLR 09/02 A3011 RMK AO2 SLP184 T00940017
Pressure 30.08 in
Visibility 10.0 miles
Clouds Clear
Windchill 46 °F
Dew Point 39 °F
Humidity 74%
Rainfall 0.00 in
Snow Depth Not available.
7:00 AM 5:07 PM
Waxing Gibbous, 88% visible
METAR KDMN 110153Z AUTO 23006KT 10SM CLR 09/02 A3011 RMK AO2 SLP184 T00940017

10-Day Weather Forecast

Almanac

Astronomy

Dec. 10, 2016 Rise Set
Actual Time
Civil Twilight
Nautical Twilight
Astronomical Twilight
Moon
Length of Visible Light
Length of Day
Tomorrow will be .
, % of the Moon is Illuminated

Today's Extremes

State Highs State Lows

Community

WunderPhotos

Upload Photos

1,956,690 photos uploaded!

WunderBlog® & News

Nearby

Air Quality

  Air Quality AQ Index Pollutant
Not available.

Snow Depth

Station Depth Elevation

Earthquake Activity

City Distance Mag. Time & Date
Minimum magnitude displayed is 2.5.

Coastal Water Temperatures

Place Temperature

Stations

Nearby Weather Stations

Station Location Temp. Windchill Dew Point Humidity Wind Precip. Elev Updated Type
                   

Watches & Warnings

There are currently no watches in effect.